Time;durP1;ratioP1;P1;durP2;ratioP2;P2;SDS_P1;SDS_P2;PMS_P1;PMS_P2;Temp;Humidity;BMP_temperature;BMP_pressure;BME280_temperature;BME280_humidity;BME280_pressure;Samples;Min_cycle;Max_cycle;Signal;HPM_P1;HPM_P2
2023/01/10 00:00:36;;;;;;;14.88;4.28;;;;;;;4.99;100.00;101220.66;5074976;28;20468;-36
2023/01/10 00:03:08;;;;;;;12.48;3.25;;;;;;;4.90;100.00;101220.75;5075190;28;20028;-36
2023/01/10 00:05:35;;;;;;;13.73;3.10;;;;;;;4.93;100.00;101245.50;5074837;28;20017;-36
2023/01/10 00:08:02;;;;;;;8.43;2.60;;;;;;;4.92;100.00;101241.97;5075695;28;20039;-36
2023/01/10 00:10:27;;;;;;;14.57;3.67;;;;;;;4.93;100.00;101256.22;5074882;28;20376;-36
2023/01/10 00:15:37;;;;;;;15.18;3.40;;;;;;;4.92;100.00;101252.69;5075236;28;20065;-36
2023/01/10 00:18:03;;;;;;;7.93;2.05;;;;;;;4.94;100.00;101260.59;5075413;28;20057;-36
2023/01/10 00:20:29;;;;;;;16.13;3.95;;;;;;;4.85;100.00;101257.97;5074884;28;20375;-36
2023/01/10 00:22:54;;;;;;;9.52;3.17;;;;;;;4.86;100.00;101266.84;5075552;28;20025;-36
2023/01/10 00:25:20;;;;;;;9.17;2.63;;;;;;;4.85;100.00;101281.25;5075366;28;20033;-37
2023/01/10 00:28:33;;;;;;;14.68;3.58;;;;;;;4.82;100.00;101286.97;5074705;28;20025;-37
2023/01/10 00:30:34;;;;;;;9.03;2.70;;;;;;;4.76;100.00;101283.19;5070745;28;20036;-37
2023/01/10 00:32:59;;;;;;;12.10;2.67;;;;;;;4.71;100.00;101290.94;5074823;28;20056;-37
2023/01/10 00:35:25;;;;;;;12.20;3.50;;;;;;;4.65;100.00;101294.34;5074814;28;20063;-37
2023/01/10 00:37:56;;;;;;;12.32;2.90;;;;;;;4.63;100.00;101294.50;5074400;28;20320;-37
2023/01/10 00:40:21;;;;;;;12.48;2.80;;;;;;;4.58;100.00;101301.41;5074698;28;20418;-37
2023/01/10 00:45:31;;;;;;;12.20;2.90;;;;;;;4.51;100.00;101303.16;5074632;28;20112;-37
2023/01/10 00:47:56;;;;;;;10.60;2.53;;;;;;;4.49;100.00;101311.41;5074349;28;20472;-37
2023/01/10 00:50:21;;;;;;;13.00;3.47;;;;;;;4.51;100.00;101312.03;5075222;28;20045;-37
2023/01/10 00:52:47;;;;;;;13.00;3.47;;;;;;;4.39;100.00;101303.59;5074465;28;20028;-37
2023/01/10 00:55:13;;;;;;;14.35;2.83;;;;;;;4.38;100.00;101307.28;5074978;28;20043;-37
2023/01/10 00:57:38;;;;;;;13.10;3.03;;;;;;;4.35;100.00;101314.84;5074335;28;20077;-37
2023/01/10 01:00:06;;;;;;;7.83;2.60;;;;;;;4.34;100.00;101319.38;5074059;28;20465;-37
2023/01/10 01:02:32;;;;;;;6.78;2.50;;;;;;;4.34;100.00;101315.84;5073929;28;20025;-37
2023/01/10 01:04:57;;;;;;;7.78;2.55;;;;;;;4.25;100.00;101301.69;5074295;28;20051;-37
2023/01/10 01:07:22;;;;;;;11.40;2.80;;;;;;;4.35;100.00;101330.91;5073935;28;20540;-37
2023/01/10 01:12:32;;;;;;;10.95;3.45;;;;;;;4.35;100.00;101331.75;5087755;28;20040;-37
2023/01/10 01:14:57;;;;;;;14.27;2.83;;;;;;;4.29;100.00;101321.72;5074447;28;20381;-37
2023/01/10 01:17:23;;;;;;;11.70;2.97;;;;;;;4.33;100.00;101336.44;5073593;28;20453;-37
2023/01/10 01:19:48;;;;;;;8.38;3.20;;;;;;;4.41;100.00;101353.47;5073867;28;20020;-37
2023/01/10 01:22:14;;;;;;;12.20;3.33;;;;;;;4.42;100.00;101361.31;5073429;28;20480;-37
2023/01/10 01:24:40;;;;;;;9.27;2.70;;;;;;;4.38;100.00;101349.28;5073514;28;20028;-37
2023/01/10 01:27:05;;;;;;;11.23;3.17;;;;;;;4.38;100.00;101358.16;5073630;28;20274;-37
2023/01/10 01:29:31;;;;;;;10.40;3.30;;;;;;;4.47;100.00;101366.97;5073333;28;20029;-37
2023/01/10 01:31:56;;;;;;;10.93;3.15;;;;;;;4.48;100.00;101373.16;5073926;28;20036;-37
2023/01/10 01:34:22;;;;;;;11.57;3.73;;;;;;;4.51;100.00;101372.81;5073352;28;20032;-37
2023/01/10 01:36:47;;;;;;;10.03;3.13;;;;;;;4.53;100.00;101368.91;5074176;28;20029;-37
2023/01/10 01:39:12;;;;;;;15.43;3.33;;;;;;;4.56;100.00;101375.78;5073651;28;20033;-37
2023/01/10 01:41:55;;;;;;;11.50;2.90;;;;;;;4.49;100.00;101362.28;5073844;28;20027;-37
2023/01/10 01:44:22;;;;;;;6.22;2.72;;;;;;;4.53;100.00;101368.91;5074041;28;20511;-38
2023/01/10 01:47:00;;;;;;;14.23;3.35;;;;;;;4.60;100.00;101377.09;5073778;28;20458;-37
2023/01/10 01:49:27;;;;;;;11.48;2.95;;;;;;;4.53;100.00;101362.72;5073535;28;20056;-37
2023/01/10 01:51:59;;;;;;;;;;;;;;;4.64;100.00;101375.72;5073881;28;20035;-37
2023/01/10 01:54:27;;;;;;;14.38;4.38;;;;;;;4.60;100.00;101379.78;5073963;28;20332;-37
2023/01/10 01:56:58;;;;;;;8.27;3.50;;;;;;;4.57;100.00;101397.03;5073694;28;20068;-37
2023/01/10 01:59:45;;;;;;;11.60;3.42;;;;;;;4.58;100.00;101387.97;5073431;28;20043;-37
2023/01/10 02:02:14;;;;;;;15.38;3.97;;;;;;;4.57;100.00;101388.16;5073699;28;20131;-37
2023/01/10 02:04:50;;;;;;;15.50;3.50;;;;;;;4.51;100.00;101381.66;5074162;28;20036;-37
2023/01/10 02:07:16;;;;;;;13.63;3.35;;;;;;;4.59;100.00;101403.06;5073121;28;20028;-37
2023/01/10 02:09:45;;;;;;;;;;;;;;;4.62;100.00;101394.66;5074169;28;20028;-37
2023/01/10 02:12:12;;;;;;;13.90;3.90;;;;;;;4.60;100.00;101401.22;5073244;28;20380;-37
2023/01/10 02:14:39;;;;;;;13.35;3.42;;;;;;;4.61;100.00;101398.34;5072749;28;20457;-37
2023/01/10 02:17:07;;;;;;;12.90;3.00;;;;;;;4.63;100.00;101407.00;5073466;28;20032;-37
2023/01/10 02:19:53;;;;;;;16.38;4.47;;;;;;;4.67;100.00;101406.66;5073186;28;20028;-37
2023/01/10 02:22:49;;;;;;;15.35;3.85;;;;;;;4.63;100.00;101392.78;5073092;28;20048;-37
2023/01/10 02:25:36;;;;;;;13.88;3.95;;;;;;;4.72;100.00;101407.78;5073124;28;20044;-37
2023/01/10 02:28:38;;;;;;;15.75;4.32;;;;;;;4.74;100.00;101408.47;5072108;28;20033;-37
2023/01/10 02:31:35;;;;;;;11.85;3.88;;;;;;;4.76;100.00;101410.97;5073007;28;20032;-37
2023/01/10 02:34:21;;;;;;;13.30;3.47;;;;;;;4.76;100.00;101414.47;5073611;28;20067;-37
2023/01/10 02:37:00;;;;;;;11.38;3.78;;;;;;;4.77;100.00;101413.44;5075176;28;20380;-37
2023/01/10 02:39:34;;;;;;;11.23;3.78;;;;;;;4.78;100.00;101414.28;5076760;28;20040;-37
2023/01/10 02:42:22;;;;;;;14.35;3.38;;;;;;;4.78;100.00;101408.94;5077219;28;20085;-37
2023/01/10 02:45:03;;;;;;;11.95;3.53;;;;;;;4.71;100.00;101400.78;5077160;28;20477;-37
2023/01/10 02:47:39;;;;;;;13.93;3.22;;;;;;;4.58;100.00;101385.28;5076698;28;20039;-37
2023/01/10 02:50:23;;;;;;;14.32;3.78;;;;;;;4.71;100.00;101408.81;5077000;28;20433;-35
2023/01/10 02:52:49;;;;;;;10.70;3.67;;;;;;;4.70;100.00;101423.22;5076426;28;20033;-37
2023/01/10 02:55:15;;;;;;;12.90;4.07;;;;;;;4.69;100.00;101418.06;5076832;28;20158;-37
2023/01/10 02:58:11;;;;;;;14.60;4.15;;;;;;;4.67;100.00;101431.63;5076703;28;20102;-36
2023/01/10 03:00:52;;;;;;;14.07;3.67;;;;;;;4.60;100.00;101417.28;5076539;28;20040;-37
2023/01/10 03:03:32;;;;;;;13.68;3.42;;;;;;;4.57;100.00;101431.00;5076690;28;20024;-37
2023/01/10 03:06:06;;;;;;;18.83;5.18;;;;;;;4.49;100.00;101425.69;5076834;28;20397;-37
2023/01/10 03:08:36;;;;;;;16.02;4.28;;;;;;;4.49;100.00;101431.91;5075267;28;20028;-37
2023/01/10 03:11:05;;;;;;;12.32;4.13;;;;;;;4.36;100.00;101427.13;5076063;28;20043;-37
2023/01/10 03:13:38;;;;;;;10.43;3.72;;;;;;;4.44;100.00;101439.66;5076379;28;20032;-37
2023/01/10 03:16:06;;;;;;;16.30;4.07;;;;;;;4.42;100.00;101443.50;5076662;28;20060;-37
2023/01/10 03:18:40;;;;;;;17.67;4.22;;;;;;;4.32;100.00;101433.84;5076112;28;20461;-37
2023/01/10 03:21:07;;;;;;;13.90;4.00;;;;;;;4.45;100.00;101459.22;5076023;28;20041;-37
2023/01/10 03:23:33;;;;;;;17.08;4.35;;;;;;;4.43;100.00;101466.59;5076022;28;20025;-37
2023/01/10 03:26:01;;;;;;;14.48;3.90;;;;;;;4.45;100.00;101472.63;5075878;28;20020;-37
2023/01/10 03:28:36;;;;;;;17.77;5.25;;;;;;;4.47;100.00;101471.41;5075927;28;20107;-37
2023/01/10 03:31:08;;;;;;;11.93;3.20;;;;;;;4.52;100.00;101476.25;5076591;28;20381;-37
2023/01/10 03:33:34;;;;;;;15.73;4.32;;;;;;;4.41;100.00;101466.75;5076053;28;20024;-37
2023/01/10 03:36:17;;;;;;;12.60;3.83;;;;;;;4.51;100.00;101477.25;5075377;28;20370;-37
2023/01/10 03:39:12;;;;;;;13.98;3.78;;;;;;;4.55;100.00;101478.59;5076497;28;20024;-37
2023/01/10 03:41:46;;;;;;;14.15;3.78;;;;;;;4.51;100.00;101477.25;5075887;28;20384;-38
2023/01/10 03:47:08;;;;;;;18.33;3.95;;;;;;;4.53;100.00;101492.13;5075319;28;20545;-37
2023/01/10 03:49:36;;;;;;;16.00;3.47;;;;;;;4.50;100.00;101494.34;5075959;28;20043;-37
2023/01/10 03:52:03;;;;;;;15.18;3.42;;;;;;;4.52;100.00;101495.81;5075849;28;20112;-37
2023/01/10 03:54:29;;;;;;;13.68;4.40;;;;;;;4.55;100.00;101505.38;5075008;28;20028;-37
2023/01/10 03:56:54;;;;;;;10.65;3.50;;;;;;;4.55;100.00;101508.06;5075570;28;20027;-38
2023/01/10 03:59:24;;;;;;;13.90;3.07;;;;;;;4.51;100.00;101499.53;5075615;28;20043;-37
2023/01/10 04:01:50;;;;;;;11.27;3.20;;;;;;;4.54;100.00;101517.94;5075218;28;20028;-37
2023/01/10 04:04:16;;;;;;;12.65;3.80;;;;;;;4.55;100.00;101521.44;5075781;28;20024;-37
2023/01/10 04:06:41;;;;;;;9.07;3.50;;;;;;;4.51;100.00;101514.75;5075137;28;20431;-37
2023/01/10 04:09:07;;;;;;;14.73;4.47;;;;;;;4.54;100.00;101525.09;5075332;28;20408;-37
2023/01/10 04:11:32;;;;;;;13.70;3.83;;;;;;;4.54;100.00;101542.03;5075027;28;20362;-37
2023/01/10 04:13:58;;;;;;;13.43;3.43;;;;;;;4.50;100.00;101523.81;5074823;28;20035;-37
2023/01/10 04:16:23;;;;;;;14.93;3.33;;;;;;;4.47;100.00;101518.78;5073782;28;20346;-37
2023/01/10 04:18:49;;;;;;;17.67;3.30;;;;;;;4.37;100.00;101513.66;5074665;28;20029;-38
2023/01/10 04:21:14;;;;;;;14.13;3.33;;;;;;;4.49;100.00;101532.81;5074875;28;20111;-37
2023/01/10 04:23:39;;;;;;;13.13;4.10;;;;;;;4.49;100.00;101546.22;5075161;28;20032;-37
2023/01/10 04:26:05;;;;;;;16.57;4.00;;;;;;;4.48;100.00;101557.94;5074700;28;20024;-37
2023/01/10 04:28:30;;;;;;;12.43;3.60;;;;;;;4.51;100.00;101549.56;5075043;28;20594;-37
2023/01/10 04:30:55;;;;;;;17.47;3.67;;;;;;;4.53;100.00;101558.25;5074561;28;20041;-37
2023/01/10 04:33:21;;;;;;;14.20;4.30;;;;;;;4.53;100.00;101551.06;5074915;28;20074;-37
2023/01/10 04:35:48;;;;;;;9.20;3.05;;;;;;;4.50;100.00;101553.28;5074547;28;20052;-37
2023/01/10 04:38:14;;;;;;;10.93;3.13;;;;;;;4.46;100.00;101535.88;5075025;28;20523;-37
2023/01/10 04:40:40;;;;;;;16.13;3.75;;;;;;;4.46;100.00;101541.22;5074348;28;20043;-37
2023/01/10 04:43:05;;;;;;;15.82;3.47;;;;;;;4.43;100.00;101536.22;5074699;28;20021;-37
2023/01/10 04:45:30;;;;;;;17.10;4.37;;;;;;;4.43;100.00;101534.38;5074383;28;20032;-37
2023/01/10 04:47:58;;;;;;;11.67;3.27;;;;;;;4.44;100.00;101532.50;5074676;28;20037;-37
2023/01/10 04:50:23;;;;;;;15.88;3.70;;;;;;;4.42;100.00;101540.72;5074011;28;20083;-37
2023/01/10 04:52:48;;;;;;;13.97;3.50;;;;;;;4.37;100.00;101546.59;5074194;28;20412;-37
2023/01/10 04:55:14;;;;;;;17.40;3.73;;;;;;;4.41;100.00;101552.47;5072904;28;20038;-37
2023/01/10 04:57:39;;;;;;;14.70;3.77;;;;;;;4.37;100.00;101557.31;5074428;28;20111;-37
2023/01/10 05:00:05;;;;;;;20.67;4.53;;;;;;;4.35;100.00;101553.16;5073928;28;20039;-37
2023/01/10 05:02:30;;;;;;;;;;;;;;;4.39;100.00;101563.34;5074777;28;20028;-37
2023/01/10 05:04:56;;;;;;;11.17;2.97;;;;;;;4.28;100.00;101546.81;5074350;28;19913;-38
2023/01/10 05:07:21;;;;;;;14.80;3.40;;;;;;;4.34;100.00;101546.97;5073711;28;20328;-37
2023/01/10 05:09:46;;;;;;;13.03;3.33;;;;;;;4.28;100.00;101541.44;5072904;28;20071;-37
2023/01/10 05:12:12;;;;;;;11.73;3.10;;;;;;;4.29;100.00;101549.31;5074432;28;20159;-37
2023/01/10 05:14:37;;;;;;;14.70;4.60;;;;;;;4.28;100.00;101555.66;5073989;28;20111;-37
2023/01/10 05:17:02;;;;;;;16.63;3.70;;;;;;;4.27;100.00;101567.41;5073839;28;20036;-37
2023/01/10 05:19:28;;;;;;;13.37;3.77;;;;;;;4.18;100.00;101559.56;5073825;28;20032;-37
2023/01/10 05:21:53;;;;;;;19.27;4.43;;;;;;;4.20;100.00;101586.97;5073770;28;20058;-38
2023/01/10 05:24:18;;;;;;;21.93;4.07;;;;;;;4.16;100.00;101605.25;5074356;28;20507;-37
2023/01/10 05:26:44;;;;;;;20.47;3.80;;;;;;;4.16;100.00;101607.94;5073753;28;20039;-37
2023/01/10 05:29:10;;;;;;;17.07;4.03;;;;;;;4.15;100.00;101603.59;5074285;28;20055;-37
2023/01/10 05:31:36;;;;;;;16.67;3.47;;;;;;;4.13;100.00;101594.88;5073556;28;20024;-37
2023/01/10 05:34:01;;;;;;;14.75;3.53;;;;;;;4.15;100.00;101600.91;5073661;28;20031;-37
2023/01/10 05:36:26;;;;;;;20.23;4.47;;;;;;;4.09;100.00;101598.88;5073368;28;20107;-37
2023/01/10 05:38:52;;;;;;;22.27;4.10;;;;;;;4.16;100.00;101602.56;5074240;28;20115;-37
2023/01/10 05:41:17;;;;;;;19.70;4.13;;;;;;;4.16;100.00;101601.75;5073612;28;20020;-37
2023/01/10 05:43:43;;;;;;;14.03;3.87;;;;;;;4.18;100.00;101602.38;5073848;28;20432;-38
2023/01/10 05:46:08;;;;;;;17.57;4.57;;;;;;;4.18;100.00;101600.53;5073508;28;20487;-38
2023/01/10 05:48:34;;;;;;;20.13;4.35;;;;;;;4.21;100.00;101610.94;5072960;28;20040;-37
2023/01/10 05:50:59;;;;;;;18.47;4.93;;;;;;;4.25;100.00;101622.97;5074108;28;20052;-37
2023/01/10 05:53:25;;;;;;;16.87;4.13;;;;;;;4.24;100.00;101605.22;5073822;28;20017;-37
2023/01/10 05:55:59;;;;;;;19.95;4.50;;;;;;;4.38;100.00;101633.97;5073942;28;20465;-37
2023/01/10 05:58:25;;;;;;;20.08;4.05;;;;;;;4.41;100.00;101631.97;5073991;28;20024;-37
2023/01/10 06:00:51;;;;;;;;;;;;;;;4.44;100.00;101635.16;5074591;28;20090;-37
2023/01/10 06:03:16;;;;;;;13.73;3.80;;;;;;;4.44;100.00;101623.56;5073698;28;20311;-37
2023/01/10 06:05:42;;;;;;;19.83;4.80;;;;;;;4.47;100.00;101644.66;5073110;28;20021;-37
2023/01/10 06:08:08;;;;;;;23.00;4.23;;;;;;;4.50;100.00;101638.97;5073170;28;20051;-37
2023/01/10 06:10:33;;;;;;;19.98;5.00;;;;;;;4.49;100.00;101624.75;5073160;28;20033;-37
2023/01/10 06:12:58;;;;;;;18.00;4.07;;;;;;;4.51;100.00;101624.56;5077277;28;20064;-37
2023/01/10 06:15:24;;;;;;;23.33;4.70;;;;;;;4.51;100.00;101627.25;5077021;28;20071;-37
2023/01/10 06:17:49;;;;;;;26.13;4.90;;;;;;;4.50;100.00;101631.78;5077509;28;20032;-37
2023/01/10 06:20:15;;;;;;;19.40;4.63;;;;;;;4.52;100.00;101632.44;5077542;28;20048;-37
2023/01/10 06:22:41;;;;;;;21.50;4.45;;;;;;;4.53;100.00;101639.44;5077347;28;20035;-37
2023/01/10 06:25:07;;;;;;;;;;;;;;;4.58;100.00;101646.97;5077231;28;20460;-37
2023/01/10 06:27:32;;;;;;;23.35;5.25;;;;;;;4.56;100.00;101651.69;5077295;28;19915;-37
2023/01/10 06:30:00;;;;;;;14.47;4.37;;;;;;;4.55;100.00;101658.06;5077014;28;20028;-37
2023/01/10 06:32:25;;;;;;;18.40;3.83;;;;;;;4.59;100.00;101646.00;5077428;28;20157;-37
2023/01/10 06:34:51;;;;;;;16.25;4.00;;;;;;;4.57;100.00;101656.03;5076579;28;20066;-37
2023/01/10 06:37:16;;;;;;;19.03;5.17;;;;;;;4.57;100.00;101642.63;5076610;28;20027;-37
2023/01/10 06:39:41;;;;;;;20.97;4.57;;;;;;;4.57;100.00;101645.31;5076600;28;20037;-37
2023/01/10 06:42:07;;;;;;;17.30;4.50;;;;;;;4.54;100.00;101654.53;5076456;28;20029;-38
2023/01/10 06:44:32;;;;;;;20.23;4.43;;;;;;;4.48;100.00;101651.69;5077009;28;20020;-38
2023/01/10 06:46:57;;;;;;;20.07;4.07;;;;;;;4.53;100.00;101670.75;5076421;28;20056;-38
2023/01/10 06:49:22;;;;;;;17.13;4.30;;;;;;;4.46;100.00;101662.59;5076961;28;20052;-38
2023/01/10 06:51:48;;;;;;;22.80;4.40;;;;;;;4.45;100.00;101668.13;5076626;28;20067;-38
2023/01/10 06:54:13;;;;;;;20.97;4.57;;;;;;;4.37;100.00;101677.81;5076618;28;20047;-38
2023/01/10 06:56:38;;;;;;;19.17;4.20;;;;;;;4.35;100.00;101681.69;5076478;28;20090;-38
2023/01/10 06:59:04;;;;;;;23.20;4.80;;;;;;;4.29;100.00;101671.63;5077095;28;20059;-38
2023/01/10 07:01:29;;;;;;;21.17;4.20;;;;;;;4.26;100.00;101680.03;5076875;28;20075;-37
2023/01/10 07:03:54;;;;;;;15.83;3.77;;;;;;;4.19;100.00;101697.75;5076200;28;20124;-37
2023/01/10 07:06:20;;;;;;;15.33;4.30;;;;;;;4.21;100.00;101701.94;5076104;28;20486;-37
2023/01/10 07:08:45;;;;;;;16.33;4.43;;;;;;;4.18;100.00;101707.63;5076301;28;20138;-37
2023/01/10 07:11:14;;;;;;;14.98;4.03;;;;;;;4.13;100.00;101710.81;5076933;28;20074;-37
2023/01/10 07:13:39;;;;;;;19.75;4.50;;;;;;;4.10;100.00;101713.84;5076232;28;20377;-38
2023/01/10 07:16:11;;;;;;;19.02;4.90;;;;;;;3.98;100.00;101703.63;5076167;28;20024;-37
2023/01/10 07:18:39;;;;;;;23.45;5.43;;;;;;;4.04;100.00;101710.97;5075838;28;20025;-37
2023/01/10 07:21:04;;;;;;;21.13;4.68;;;;;;;4.00;100.00;101709.63;5074800;28;20032;-37
2023/01/10 07:23:30;;;;;;;19.38;4.15;;;;;;;3.97;100.00;101704.63;5076095;28;20431;-36
2023/01/10 07:26:03;;;;;;;19.85;3.90;;;;;;;3.99;100.00;101716.81;5076054;28;20112;-36
2023/01/10 07:28:29;;;;;;;20.40;4.30;;;;;;;4.09;100.00;101740.75;5076218;28;20099;-36
2023/01/10 07:30:58;;;;;;;17.95;5.10;;;;;;;4.06;100.00;101735.75;5075455;28;20032;-36
2023/01/10 07:33:24;;;;;;;24.77;5.88;;;;;;;4.16;100.00;101762.34;5076026;28;20461;-37
2023/01/10 07:35:49;;;;;;;24.30;4.97;;;;;;;4.17;100.00;101759.50;5075897;28;20034;-36
2023/01/10 07:38:14;;;;;;;18.63;4.27;;;;;;;4.11;100.00;101739.59;5075811;28;20108;-37
2023/01/10 07:40:40;;;;;;;18.10;3.83;;;;;;;4.22;100.00;101767.88;5075526;28;20032;-38
2023/01/10 07:43:05;;;;;;;21.67;4.53;;;;;;;4.25;100.00;101769.41;5075744;28;20048;-38
2023/01/10 07:45:30;;;;;;;20.77;5.00;;;;;;;4.30;100.00;101769.72;5075328;28;20024;-38
2023/01/10 07:48:01;;;;;;;20.37;4.53;;;;;;;4.30;100.00;101778.59;5075456;28;20111;-37
2023/01/10 07:50:29;;;;;;;17.92;4.43;;;;;;;4.31;100.00;101763.38;5074008;28;20078;-37
2023/01/10 07:52:54;;;;;;;19.10;4.55;;;;;;;4.27;100.00;101770.06;5075202;28;20035;-37
2023/01/10 07:55:20;;;;;;;21.48;4.97;;;;;;;4.35;100.00;101776.25;5075351;28;20036;-37
2023/01/10 07:57:46;;;;;;;21.90;5.10;;;;;;;4.34;100.00;101779.94;5076239;28;20154;-37
2023/01/10 08:00:12;;;;;;;18.15;4.18;;;;;;;4.34;100.00;101784.44;5075607;28;20115;-37
2023/01/10 08:02:37;;;;;;;18.33;3.97;;;;;;;4.26;100.00;101765.72;5075510;28;20025;-37
2023/01/10 08:05:03;;;;;;;19.80;4.43;;;;;;;4.34;100.00;101787.97;5074925;28;20027;-37
2023/01/10 08:07:29;;;;;;;22.38;5.20;;;;;;;4.32;100.00;101795.31;5075212;28;20032;-37
2023/01/10 08:09:54;;;;;;;;;;;;;;;4.42;100.00;101780.94;5075838;28;20373;-37
2023/01/10 08:12:20;;;;;;;18.27;4.20;;;;;;;4.33;100.00;101780.91;5075271;28;19919;-37
2023/01/10 08:14:46;;;;;;;21.90;5.63;;;;;;;4.34;100.00;101771.03;5074714;28;20298;-37
2023/01/10 08:17:11;;;;;;;18.63;4.83;;;;;;;4.37;100.00;101782.25;5074640;28;20060;-36
2023/01/10 08:19:36;;;;;;;19.53;5.73;;;;;;;4.30;100.00;101773.25;5074745;28;20048;-37
2023/01/10 08:22:02;;;;;;;17.97;4.13;;;;;;;4.35;100.00;101780.78;5074314;28;20085;-36
2023/01/10 08:24:27;;;;;;;15.43;3.27;;;;;;;4.39;100.00;101785.63;5074933;28;20021;-37
2023/01/10 08:26:52;;;;;;;19.38;4.38;;;;;;;4.32;100.00;101773.91;5074750;28;20504;-37
2023/01/10 08:29:18;;;;;;;26.70;4.73;;;;;;;4.30;100.00;101772.41;5075021;28;20032;-36
2023/01/10 08:31:44;;;;;;;23.97;5.00;;;;;;;4.43;100.00;101788.78;5074746;28;20453;-38
2023/01/10 08:34:12;;;;;;;24.35;4.40;;;;;;;4.36;100.00;101791.31;5073159;28;20039;-37
2023/01/10 08:36:37;;;;;;;20.90;4.75;;;;;;;4.29;100.00;101774.22;5074565;28;20093;-37
2023/01/10 08:39:02;;;;;;;20.53;4.77;;;;;;;4.45;100.00;101799.34;5074625;28;20057;-37
2023/01/10 08:41:28;;;;;;;19.93;4.70;;;;;;;4.42;100.00;101786.28;5074992;28;20059;-37
2023/01/10 08:43:53;;;;;;;17.83;3.77;;;;;;;4.36;100.00;101772.56;5075302;28;20263;-37
2023/01/10 08:46:19;;;;;;;17.10;3.53;;;;;;;4.46;100.00;101779.59;5074134;28;20029;-37
2023/01/10 08:48:44;;;;;;;16.00;3.87;;;;;;;4.43;100.00;101777.25;5074670;28;20305;-37
2023/01/10 08:51:10;;;;;;;19.98;5.28;;;;;;;4.47;100.00;101791.97;5072976;28;20059;-37
2023/01/10 08:53:38;;;;;;;17.10;4.53;;;;;;;4.45;100.00;101792.16;5074336;28;20027;-37
2023/01/10 08:56:03;;;;;;;17.08;4.47;;;;;;;4.39;100.00;101777.59;5074178;28;20025;-36
2023/01/10 08:58:28;;;;;;;17.67;4.40;;;;;;;4.46;100.00;101785.78;5074189;28;20081;-36
2023/01/10 09:00:54;;;;;;;17.40;4.33;;;;;;;4.43;100.00;101788.78;5074422;28;20033;-37
2023/01/10 09:03:19;;;;;;;13.73;3.87;;;;;;;4.50;100.00;101784.44;5074956;28;20025;-37
2023/01/10 09:05:45;;;;;;;19.33;4.43;;;;;;;4.46;100.00;101779.59;5074537;28;20025;-37
2023/01/10 09:08:10;;;;;;;17.07;4.30;;;;;;;4.44;100.00;101770.88;5073716;28;20032;-37
2023/01/10 09:10:36;;;;;;;16.92;4.28;;;;;;;4.47;100.00;101783.94;5073884;28;20029;-37
2023/01/10 09:13:01;;;;;;;17.20;4.73;;;;;;;4.51;100.00;101774.56;5074042;28;20461;-37
2023/01/10 09:15:32;;;;;;;15.20;4.43;;;;;;;4.52;100.00;101777.06;5074232;28;20109;-37
2023/01/10 09:18:00;;;;;;;16.90;3.97;;;;;;;4.47;100.00;101759.84;5074249;28;20034;-37
2023/01/10 09:20:27;;;;;;;20.13;4.15;;;;;;;4.58;100.00;101773.72;5074427;28;20354;-37
2023/01/10 09:22:53;;;;;;;19.00;3.50;;;;;;;4.62;100.00;101774.22;5074031;28;20035;-37
2023/01/10 09:25:19;;;;;;;21.55;4.32;;;;;;;4.67;100.00;101765.69;5074100;28;20060;-37
2023/01/10 09:27:44;;;;;;;19.77;4.95;;;;;;;4.53;100.00;101764.50;5073812;28;20440;-37
2023/01/10 09:30:10;;;;;;;18.40;4.00;;;;;;;4.60;100.00;101765.53;5073868;28;20032;-37
2023/01/10 09:32:36;;;;;;;17.83;4.28;;;;;;;4.57;100.00;101772.03;5073670;28;20115;-37
2023/01/10 09:35:02;;;;;;;20.23;4.82;;;;;;;4.57;100.00;101772.03;5074021;28;20059;-37
2023/01/10 09:37:27;;;;;;;15.88;4.00;;;;;;;4.56;100.00;101774.91;5073616;28;20039;-37
2023/01/10 09:39:53;;;;;;;19.30;4.38;;;;;;;4.50;100.00;101756.84;5074423;28;20051;-37
2023/01/10 09:42:18;;;;;;;18.50;3.50;;;;;;;4.59;100.00;101775.41;5073374;28;20059;-38
2023/01/10 09:45:04;;;;;;;17.13;3.93;;;;;;;4.59;100.00;101759.34;5073423;28;20029;-38
2023/01/10 09:47:44;;;;;;;20.90;4.53;;;;;;;4.59;100.00;101753.16;5073809;28;20036;-38
2023/01/10 09:50:45;;;;;;;16.20;3.88;;;;;;;4.77;100.00;101769.84;5073341;28;20048;-38
2023/01/10 09:53:23;;;;;;;17.17;4.03;;;;;;;4.78;100.00;101763.50;5074237;28;20042;-38
2023/01/10 09:55:52;;;;;;;14.57;3.45;;;;;;;4.75;100.00;101755.78;5073176;28;20064;-37
2023/01/10 09:58:21;;;;;;;15.75;3.70;;;;;;;4.88;100.00;101772.19;5073722;28;20530;-38
2023/01/10 10:00:54;;;;;;;20.55;5.75;;;;;;;4.84;100.00;101757.44;5073822;28;20116;-38
2023/01/10 10:03:31;;;;;;;25.23;7.45;;;;;;;4.87;100.00;101765.13;5074298;28;20029;-38
2023/01/10 10:05:57;;;;;;;;;;;;;;;4.99;100.00;101764.78;5073836;28;20039;-38
2023/01/10 10:08:22;;;;;;;20.92;5.30;;;;;;;5.00;100.00;101771.81;5073869;28;19908;-38
2023/01/10 10:11:22;;;;;;;22.53;4.53;;;;;;;5.05;100.00;101786.38;5073498;28;20028;-38
2023/01/10 10:14:14;;;;;;;18.05;5.50;;;;;;;5.10;100.00;101764.41;5073296;28;20107;-38
2023/01/10 10:16:55;;;;;;;17.50;3.60;;;;;;;5.14;100.00;101757.69;5073845;28;20032;-37
2023/01/10 10:19:41;;;;;;;13.55;3.80;;;;;;;5.16;100.00;101751.13;5072948;28;20494;-38
2023/01/10 10:22:19;;;;;;;16.27;3.42;;;;;;;5.22;100.00;101740.72;5073134;28;20020;-38
2023/01/10 10:24:57;;;;;;;14.88;3.83;;;;;;;5.23;100.00;101740.56;5073210;28;20020;-38
2023/01/10 10:27:48;;;;;;;16.20;4.13;;;;;;;5.24;100.00;101736.88;5073762;28;20031;-37
2023/01/10 10:30:41;;;;;;;17.45;4.57;;;;;;;5.28;100.00;101742.72;5011153;28;20046;-37
2023/01/10 10:33:21;;;;;;;18.75;3.72;;;;;;;5.29;100.00;101739.03;5011099;28;20026;-37
2023/01/10 10:35:54;;;;;;;15.40;3.45;;;;;;;5.25;100.00;101726.97;5011218;28;20030;-37
2023/01/10 10:38:28;;;;;;;16.52;3.47;;;;;;;5.27;100.00;101725.81;5011345;28;20034;-37
2023/01/10 10:40:55;;;;;;;15.18;4.05;;;;;;;5.36;100.00;101730.09;5011809;28;20046;-37
2023/01/10 10:43:25;;;;;;;17.52;4.75;;;;;;;5.39;100.00;101716.34;5011475;28;20026;-37
2023/01/10 10:45:58;;;;;;;16.10;3.40;;;;;;;5.43;100.00;101714.16;5011503;28;20034;-37
2023/01/10 10:48:35;;;;;;;15.40;3.67;;;;;;;5.43;100.00;101698.88;5011685;28;20046;-37
2023/01/10 10:51:08;;;;;;;16.33;3.78;;;;;;;5.48;100.00;101705.59;5010974;28;20089;-37
2023/01/10 10:53:34;;;;;;;15.32;4.35;;;;;;;5.53;100.00;101705.88;5011730;28;20081;-37
2023/01/10 10:56:04;;;;;;;13.80;3.80;;;;;;;5.52;100.00;101688.94;5010936;28;20472;-36
2023/01/10 10:58:31;;;;;;;18.85;4.60;;;;;;;5.53;100.00;101692.47;5013949;28;20573;-36
2023/01/10 11:00:56;;;;;;;;;;;;;;;5.64;100.00;101690.19;5015586;28;20054;-37
2023/01/10 11:03:40;;;;;;;14.85;3.38;;;;;;;5.62;100.00;101691.41;5015201;28;20039;-37
2023/01/10 11:06:08;;;;;;;15.20;3.47;;;;;;;5.67;100.00;101691.72;5014792;28;20041;-37
2023/01/10 11:08:40;;;;;;;19.85;4.20;;;;;;;5.62;100.00;101668.09;5076630;28;20103;-38
2023/01/10 11:11:17;;;;;;;16.65;3.47;;;;;;;5.74;100.00;101679.22;5076204;28;20051;-37
2023/01/10 11:13:45;;;;;;;;;;;;;;;5.79;100.00;101682.22;5077336;28;20037;-38
2023/01/10 11:16:26;;;;;;;25.63;5.15;;;;;;;5.71;100.00;101666.19;5075483;28;19943;-37
2023/01/10 11:19:15;;;;;;;13.18;3.55;;;;;;;5.82;100.00;101676.50;5076400;28;20033;-38
2023/01/10 11:21:46;;;;;;;16.25;3.75;;;;;;;5.80;100.00;101657.03;5076385;28;20067;-38
2023/01/10 11:24:20;;;;;;;12.82;4.13;;;;;;;5.85;100.00;101667.25;5076851;28;20029;-37
2023/01/10 11:26:47;;;;;;;16.60;4.18;;;;;;;5.85;100.00;101668.06;5074385;28;20059;-37
2023/01/10 11:29:24;;;;;;;15.95;3.75;;;;;;;5.87;100.00;101671.44;5076464;28;20029;-36
2023/01/10 11:31:52;;;;;;;16.52;3.42;;;;;;;5.83;100.00;101654.00;5075610;28;20036;-36
2023/01/10 11:34:32;;;;;;;20.35;5.10;;;;;;;5.89;100.00;101672.06;5076510;28;20029;-36
2023/01/10 11:37:02;;;;;;;16.45;3.15;;;;;;;5.86;100.00;101650.97;5076023;28;20029;-37
2023/01/10 11:39:29;;;;;;;19.23;4.35;;;;;;;5.94;100.00;101660.81;5076216;28;20024;-37